createdAt,value
2019-03-18T00:00:30.096Z,72.80
2019-03-18T00:02:59.633Z,73.90
2019-03-18T00:05:29.173Z,74.90
2019-03-18T00:07:58.456Z,74.70
2019-03-18T00:10:27.730Z,74.40
2019-03-18T00:12:57.224Z,75.20
2019-03-18T00:15:26.669Z,75.40
2019-03-18T00:17:56.215Z,75.40
2019-03-18T00:20:25.493Z,75.30
2019-03-18T00:22:54.789Z,75.20
2019-03-18T00:25:24.062Z,75.20
2019-03-18T00:27:53.508Z,76.00
2019-03-18T00:30:22.796Z,76.70
2019-03-18T00:32:52.063Z,76.90
2019-03-18T00:35:21.359Z,77.30
2019-03-18T00:37:51.028Z,76.70
2019-03-18T00:40:20.681Z,77.00
2019-03-18T00:42:50.251Z,76.90
2019-03-18T00:45:19.518Z,76.00
2019-03-18T00:47:48.795Z,75.50
2019-03-18T00:50:18.186Z,75.20
2019-03-18T00:52:47.501Z,75.30
2019-03-18T00:55:16.842Z,75.50
2019-03-18T00:57:46.136Z,75.90
2019-03-18T01:00:17.912Z,76.60
2019-03-18T01:02:49.435Z,77.10
2019-03-18T01:05:18.847Z,77.70
2019-03-18T01:07:48.134Z,77.60
2019-03-18T01:10:18.251Z,78.10
2019-03-18T01:12:47.545Z,78.60
2019-03-18T01:15:27.328Z,78.60
2019-03-18T01:17:48.043Z,79.40
2019-03-18T01:20:17.323Z,79.40
2019-03-18T01:22:46.678Z,78.80
2019-03-18T01:25:16.064Z,78.70
2019-03-18T01:27:45.339Z,78.60
2019-03-18T01:30:15.179Z,77.70
2019-03-18T01:32:44.446Z,75.10
2019-03-18T01:35:13.756Z,74.80
2019-03-18T01:37:43.038Z,74.20
2019-03-18T01:40:13.472Z,74.80
2019-03-18T01:42:43.091Z,74.40
2019-03-18T01:45:13.614Z,74.70
2019-03-18T01:47:42.911Z,75.40
2019-03-18T01:50:13.407Z,73.90
2019-03-18T01:52:42.775Z,71.90
2019-03-18T01:55:12.378Z,71.80
2019-03-18T01:57:41.675Z,71.00
2019-03-18T02:00:14.052Z,71.10
2019-03-18T02:02:43.312Z,71.70
2019-03-18T02:05:12.938Z,72.20
2019-03-18T02:07:42.219Z,72.40
2019-03-18T02:10:16.403Z,72.70
2019-03-18T02:12:45.675Z,73.30
2019-03-18T02:15:15.635Z,74.30
2019-03-18T02:17:44.920Z,74.60
2019-03-18T02:20:19.659Z,75.20
2019-03-18T02:22:48.463Z,75.40
2019-03-18T02:25:17.754Z,76.70
2019-03-18T02:27:47.023Z,75.70
2019-03-18T02:30:17.950Z,74.20
2019-03-18T02:32:47.299Z,73.20
2019-03-18T02:35:16.758Z,72.80
2019-03-18T02:37:47.791Z,74.20
2019-03-18T02:40:17.068Z,75.30
2019-03-18T02:42:46.358Z,76.40
2019-03-18T02:45:15.987Z,76.60
2019-03-18T02:47:45.274Z,77.20
2019-03-18T02:50:14.557Z,77.90
2019-03-18T02:52:44.008Z,77.60
2019-03-18T02:55:13.314Z,78.30
2019-03-18T02:57:42.596Z,78.00
2019-03-18T03:00:13.512Z,78.00
2019-03-18T03:02:42.812Z,78.20
2019-03-18T03:05:15.736Z,78.10
2019-03-18T03:07:45.016Z,77.20
2019-03-18T03:10:14.874Z,76.40
2019-03-18T03:12:44.215Z,76.80
2019-03-18T03:15:14.544Z,76.20
2019-03-18T03:17:44.030Z,76.20
2019-03-18T03:20:14.010Z,75.20
2019-03-18T03:22:43.333Z,74.50
2019-03-18T03:25:12.728Z,73.80
2019-03-18T03:27:42.024Z,73.10
2019-03-18T03:30:15.551Z,73.00
2019-03-18T03:32:44.929Z,72.90
2019-03-18T03:35:14.453Z,74.00
2019-03-18T03:37:43.830Z,74.40
2019-03-18T03:40:13.453Z,73.00
2019-03-18T03:42:42.737Z,71.40
2019-03-18T03:45:13.466Z,71.50
2019-03-18T03:47:42.767Z,72.40
2019-03-18T03:50:13.571Z,73.80
2019-03-18T03:52:42.870Z,74.40
2019-03-18T03:55:12.979Z,74.30
2019-03-18T03:57:42.444Z,74.20
2019-03-18T04:00:13.370Z,73.90
2019-03-18T04:02:42.821Z,74.10
2019-03-18T04:05:12.562Z,75.10
2019-03-18T04:07:41.896Z,75.60
2019-03-18T04:10:12.998Z,75.30
2019-03-18T04:12:42.703Z,75.80
2019-03-18T04:15:13.142Z,75.60
2019-03-18T04:17:42.433Z,75.30
2019-03-18T04:20:13.343Z,75.30
2019-03-18T04:22:42.639Z,75.40
2019-03-18T04:25:11.991Z,75.20
2019-03-18T04:27:41.275Z,74.60
2019-03-18T04:30:15.044Z,75.10
2019-03-18T04:32:44.381Z,74.30
2019-03-18T04:35:13.798Z,74.30
2019-03-18T04:37:43.095Z,74.60
2019-03-18T04:40:12.632Z,75.40
2019-03-18T04:42:42.016Z,75.30
2019-03-18T04:45:11.367Z,75.10
2019-03-18T04:47:40.647Z,74.10
2019-03-18T04:50:11.679Z,73.80
2019-03-18T04:52:41.060Z,73.80
2019-03-18T04:55:10.518Z,73.60
2019-03-18T04:57:39.829Z,73.80
2019-03-18T05:00:13.586Z,73.30
2019-03-18T05:02:42.858Z,71.10
2019-03-18T05:05:12.324Z,71.20
2019-03-18T05:07:41.590Z,71.60
2019-03-18T05:10:11.328Z,72.40
2019-03-18T05:12:40.873Z,73.30
2019-03-18T05:15:10.702Z,74.10
2019-03-18T05:17:39.975Z,73.00
2019-03-18T05:20:10.713Z,71.20
2019-03-18T05:22:40.332Z,70.00
2019-03-18T05:25:10.367Z,70.10
2019-03-18T05:27:39.660Z,70.00
2019-03-18T05:30:11.548Z,69.80
2019-03-18T05:32:40.874Z,69.90
2019-03-18T05:35:10.328Z,70.50
2019-03-18T05:37:39.608Z,70.70
2019-03-18T05:40:09.427Z,70.50
2019-03-18T05:42:38.709Z,71.20
2019-03-18T05:45:10.224Z,71.80
2019-03-18T05:47:40.077Z,71.80
2019-03-18T05:50:10.740Z,71.30
2019-03-18T05:52:40.036Z,72.00
2019-03-18T05:55:10.249Z,72.30
2019-03-18T05:57:39.537Z,72.20
2019-03-18T06:00:11.942Z,72.10
2019-03-18T06:02:41.263Z,71.50
2019-03-18T06:05:10.611Z,71.10
2019-03-18T06:07:39.904Z,71.30
2019-03-18T06:10:13.211Z,72.10
2019-03-18T06:12:42.498Z,72.10
2019-03-18T06:15:12.735Z,71.80
2019-03-18T06:17:51.597Z,71.90
2019-03-18T06:20:13.086Z,70.50
2019-03-18T06:22:42.364Z,71.30
2019-03-18T06:25:11.657Z,70.90
2019-03-18T06:27:40.931Z,71.30
2019-03-18T06:30:13.308Z,70.30
2019-03-18T06:32:42.585Z,70.10
2019-03-18T06:35:12.188Z,69.50
2019-03-18T06:37:41.568Z,69.30
2019-03-18T06:40:13.089Z,68.70
2019-03-18T06:42:42.380Z,69.20
2019-03-18T06:45:12.152Z,69.50
2019-03-18T06:47:41.465Z,68.10
2019-03-18T06:50:12.507Z,66.20
2019-03-18T06:52:41.794Z,65.70
2019-03-18T06:55:11.699Z,64.40
2019-03-18T06:57:41.403Z,63.70
2019-03-18T07:00:17.034Z,62.80
2019-03-18T07:02:46.317Z,62.50
2019-03-18T07:05:15.603Z,62.80
2019-03-18T07:07:44.894Z,63.30
2019-03-18T07:10:14.351Z,63.00
2019-03-18T07:12:43.623Z,61.50
2019-03-18T07:15:13.011Z,60.80
2019-03-18T07:17:42.295Z,61.00
2019-03-18T07:20:12.712Z,60.70
2019-03-18T07:22:42.087Z,61.40
2019-03-18T07:25:11.482Z,60.10
2019-03-18T07:27:40.759Z,60.70
2019-03-18T07:30:12.563Z,60.20
2019-03-18T07:32:41.878Z,60.10
2019-03-18T07:35:11.471Z,59.30
2019-03-18T07:37:40.757Z,60.00
2019-03-18T07:40:12.154Z,61.90
2019-03-18T07:42:41.451Z,60.10
2019-03-18T07:45:11.675Z,60.20
2019-03-18T07:47:40.947Z,60.30
2019-03-18T07:50:16.616Z,58.30
2019-03-18T07:52:45.939Z,57.70
2019-03-18T07:55:15.254Z,54.60
2019-03-18T07:57:44.552Z,53.40
2019-03-18T08:00:14.863Z,52.80
2019-03-18T08:02:44.174Z,52.90
2019-03-18T08:05:13.667Z,54.40
2019-03-18T08:07:42.982Z,52.30
2019-03-18T08:10:13.197Z,49.50
2019-03-18T08:12:42.752Z,49.50
2019-03-18T08:15:12.777Z,51.00
2019-03-18T08:17:42.052Z,49.60
2019-03-18T08:20:12.175Z,51.20
2019-03-18T08:22:41.451Z,50.30
2019-03-18T08:25:11.177Z,52.20
2019-03-18T08:27:40.671Z,51.20
2019-03-18T08:30:15.931Z,47.90
2019-03-18T08:32:45.200Z,48.20
2019-03-18T08:35:14.811Z,47.90
2019-03-18T08:37:44.107Z,44.90
2019-03-18T08:40:13.659Z,45.50
2019-03-18T08:42:42.939Z,45.90
2019-03-18T08:45:13.463Z,46.30
2019-03-18T08:47:42.756Z,45.20
2019-03-18T08:50:12.943Z,43.40
2019-03-18T08:52:42.387Z,43.60
2019-03-18T08:55:12.233Z,43.60
2019-03-18T08:57:41.846Z,44.80
2019-03-18T09:00:13.739Z,43.00
2019-03-18T09:02:43.403Z,40.30
2019-03-18T09:05:13.119Z,41.60
2019-03-18T09:07:42.415Z,41.20
2019-03-18T09:10:16.319Z,39.90
2019-03-18T09:12:45.622Z,39.00
2019-03-18T09:15:14.963Z,40.80
2019-03-18T09:17:44.534Z,37.70
2019-03-18T09:20:17.578Z,38.30
2019-03-18T09:22:47.132Z,37.50
2019-03-18T09:25:16.487Z,37.40
2019-03-18T09:27:45.768Z,37.40
2019-03-18T09:30:17.547Z,37.50
2019-03-18T09:32:46.839Z,39.50
2019-03-18T09:35:16.140Z,39.90
2019-03-18T09:37:45.431Z,39.40
2019-03-18T09:40:15.857Z,41.00
2019-03-18T09:42:45.119Z,40.70
2019-03-18T09:45:15.610Z,38.20
2019-03-18T09:47:45.155Z,38.50
2019-03-18T09:50:15.483Z,39.40
2019-03-18T09:52:44.775Z,39.90
2019-03-18T09:55:14.150Z,38.80
2019-03-18T09:57:43.435Z,36.40
2019-03-18T10:00:14.343Z,32.70
2019-03-18T10:02:43.627Z,32.20
2019-03-18T10:05:12.899Z,32.50
2019-03-18T10:07:42.194Z,32.70
2019-03-18T10:10:12.905Z,33.10
2019-03-18T10:12:42.195Z,29.90
2019-03-18T10:15:13.879Z,26.80
2019-03-18T10:17:43.240Z,26.80
2019-03-18T10:20:12.926Z,26.40
2019-03-18T10:22:42.226Z,28.20
2019-03-18T10:25:11.531Z,28.80
2019-03-18T10:27:40.802Z,27.70
2019-03-18T10:30:14.010Z,26.50
2019-03-18T10:32:43.367Z,24.50
2019-03-18T10:35:12.730Z,23.20
2019-03-18T10:37:42.331Z,23.80
2019-03-18T10:40:15.062Z,23.60
2019-03-18T10:42:44.353Z,24.80
2019-03-18T10:45:14.492Z,27.10
2019-03-18T10:47:43.771Z,24.00
2019-03-18T10:50:16.723Z,22.00
2019-03-18T10:52:46.038Z,23.00
2019-03-18T10:55:15.648Z,23.10
2019-03-18T10:57:44.923Z,24.10
2019-03-18T11:00:15.501Z,26.10
2019-03-18T11:02:45.470Z,23.60
2019-03-18T11:05:15.230Z,23.50
2019-03-18T11:07:44.519Z,23.50
2019-03-18T11:10:14.952Z,22.20
2019-03-18T11:12:44.312Z,23.40
2019-03-18T11:15:15.910Z,21.10
2019-03-18T11:17:45.182Z,18.90
2019-03-18T11:20:15.420Z,18.50
2019-03-18T11:22:44.800Z,18.50
2019-03-18T11:25:17.248Z,15.40
2019-03-18T11:27:46.534Z,15.70
2019-03-18T11:30:19.759Z,14.50
2019-03-18T11:32:49.040Z,14.70
2019-03-18T11:35:18.334Z,17.20
2019-03-18T11:37:47.603Z,17.80
2019-03-18T11:40:18.143Z,17.20
2019-03-18T11:42:47.703Z,15.40
2019-03-18T11:45:17.466Z,14.90
2019-03-18T11:47:46.919Z,15.80
2019-03-18T11:50:17.443Z,16.10
2019-03-18T11:52:46.718Z,16.10
2019-03-18T11:55:21.956Z,15.00
2019-03-18T11:57:51.262Z,15.40
2019-03-18T12:00:25.278Z,16.70
2019-03-18T12:02:54.572Z,14.40
2019-03-18T12:05:24.927Z,15.30
2019-03-18T12:07:54.195Z,13.90
2019-03-18T12:10:25.617Z,14.60
2019-03-18T12:12:54.532Z,12.10
2019-03-18T12:15:25.570Z,13.60
2019-03-18T12:17:55.183Z,12.10
2019-03-18T12:20:25.820Z,10.20
2019-03-18T12:22:55.301Z,8.40
2019-03-18T12:25:24.578Z,7.20
2019-03-18T12:27:53.852Z,9.20
2019-03-18T12:30:27.723Z,9.60
2019-03-18T12:32:57.267Z,10.00
2019-03-18T12:35:26.541Z,9.50
2019-03-18T12:37:55.905Z,8.90
2019-03-18T12:40:25.262Z,12.20
2019-03-18T12:42:54.555Z,14.40
2019-03-18T12:45:23.836Z,15.40
2019-03-18T12:47:53.135Z,17.20
2019-03-18T12:50:43.045Z,17.40
2019-03-18T12:52:55.411Z,18.00
2019-03-18T12:55:24.702Z,18.80
2019-03-18T12:57:54.087Z,17.80
2019-03-18T13:00:33.763Z,16.40
2019-03-18T13:03:03.046Z,18.10
2019-03-18T13:05:32.338Z,14.10
2019-03-18T13:08:01.624Z,15.40
2019-03-18T13:10:30.898Z,11.00
2019-03-18T13:13:00.196Z,7.60
2019-03-18T13:15:29.715Z,3.60
2019-03-18T13:17:59.076Z,4.30
2019-03-18T13:20:28.350Z,5.50
2019-03-18T13:22:57.647Z,5.30
2019-03-18T13:25:26.926Z,6.20
2019-03-18T13:27:56.223Z,11.30
2019-03-18T13:30:25.775Z,17.40
2019-03-18T13:32:55.337Z,19.00
2019-03-18T13:35:24.607Z,21.00
2019-03-18T13:37:53.911Z,22.70
2019-03-18T13:40:23.181Z,24.50
2019-03-18T13:42:52.470Z,23.70
2019-03-18T13:45:22.722Z,23.50
2019-03-18T13:47:52.024Z,22.50
2019-03-18T13:50:22.342Z,21.80
2019-03-18T13:52:51.648Z,21.00
2019-03-18T13:55:20.911Z,21.10
2019-03-18T13:57:50.199Z,21.60
2019-03-18T14:00:20.632Z,21.60
2019-03-18T14:02:50.063Z,17.20
2019-03-18T14:05:19.339Z,15.60
2019-03-18T14:07:59.762Z,13.30
2019-03-18T14:10:20.987Z,11.80
2019-03-18T14:12:50.284Z,11.00
2019-03-18T14:15:21.696Z,9.30
2019-03-18T14:17:50.978Z,7.00
2019-03-18T14:20:24.772Z,6.50
2019-03-18T14:22:54.453Z,5.80
2019-03-18T14:25:23.746Z,6.90
2019-03-18T14:27:53.365Z,6.30
2019-03-18T14:30:23.599Z,6.10
2019-03-18T14:32:53.195Z,5.60
2019-03-18T14:35:22.487Z,3.40
2019-03-18T14:37:52.099Z,3.60
2019-03-18T14:40:25.500Z,4.90
2019-03-18T14:42:54.787Z,4.10
2019-03-18T14:45:24.494Z,5.00
2019-03-18T14:47:53.781Z,4.50
2019-03-18T14:50:23.050Z,5.90
2019-03-18T14:52:52.338Z,7.00
2019-03-18T14:55:21.632Z,9.10
2019-03-18T14:57:50.911Z,9.50
2019-03-18T15:00:21.331Z,9.70
2019-03-18T15:02:50.665Z,9.70
2019-03-18T15:05:20.251Z,10.60
2019-03-18T15:07:49.567Z,10.10
2019-03-18T15:10:20.389Z,9.80
2019-03-18T15:12:49.987Z,9.20
2019-03-18T15:15:19.614Z,9.00
2019-03-18T15:17:48.894Z,8.00
2019-03-18T15:20:20.288Z,5.80
2019-03-18T15:22:49.568Z,6.50
2019-03-18T15:25:33.532Z,6.40
2019-03-18T15:28:02.813Z,5.20
2019-03-18T15:30:32.091Z,6.20
2019-03-18T15:33:01.375Z,5.70
2019-03-18T15:35:30.663Z,7.30
2019-03-18T15:38:00.315Z,10.00
2019-03-18T15:40:29.947Z,11.60
2019-03-18T15:42:59.220Z,12.30
2019-03-18T15:45:28.509Z,11.40
2019-03-18T15:47:57.788Z,10.60
2019-03-18T15:50:27.429Z,9.50
2019-03-18T15:52:57.033Z,10.10
2019-03-18T15:55:26.304Z,12.50
2019-03-18T15:57:55.604Z,13.20
2019-03-18T16:00:26.629Z,13.50
2019-03-18T16:02:55.914Z,12.20
2019-03-18T16:05:25.212Z,10.40
2019-03-18T16:07:54.492Z,8.30
2019-03-18T16:10:23.774Z,5.00
2019-03-18T16:12:53.057Z,3.20
2019-03-18T16:15:22.339Z,1.30
2019-03-18T16:17:51.607Z,1.00
2019-03-18T16:20:24.395Z,1.00
2019-03-18T16:22:53.714Z,1.00
2019-03-18T16:25:23.019Z,1.00
2019-03-18T16:27:52.301Z,1.00
2019-03-18T16:30:22.626Z,1.00
2019-03-18T16:32:51.893Z,1.00
2019-03-18T16:35:21.491Z,1.00
2019-03-18T16:37:50.758Z,1.00
2019-03-18T16:40:21.964Z,1.00
2019-03-18T16:42:51.228Z,1.00
2019-03-18T16:45:20.682Z,1.00
2019-03-18T16:47:49.954Z,2.70
2019-03-18T16:50:26.720Z,3.70
2019-03-18T16:52:55.996Z,5.10
2019-03-18T16:55:25.275Z,6.50
2019-03-18T16:57:54.555Z,7.60
2019-03-18T17:00:27.924Z,8.30
2019-03-18T17:02:57.203Z,9.30
2019-03-18T17:05:26.480Z,9.80
2019-03-18T17:07:55.776Z,10.50
2019-03-18T17:10:25.046Z,10.90
2019-03-18T17:12:54.347Z,11.10
2019-03-18T17:15:23.640Z,12.30
2019-03-18T17:17:52.911Z,13.00
2019-03-18T17:20:22.199Z,13.30
2019-03-18T17:22:51.490Z,13.70
2019-03-18T17:25:31.667Z,14.40
2019-03-18T17:28:01.279Z,14.90
2019-03-18T17:30:30.558Z,15.60
2019-03-18T17:33:00.916Z,15.80
2019-03-18T17:35:30.517Z,16.40
2019-03-18T17:37:59.803Z,17.00
2019-03-18T17:40:29.084Z,17.50
2019-03-18T17:42:58.377Z,18.20
2019-03-18T17:45:27.664Z,18.20
2019-03-18T17:47:56.932Z,18.50
2019-03-18T17:50:30.105Z,18.80
2019-03-18T17:53:03.985Z,19.20
2019-03-18T17:55:30.652Z,19.20
2019-03-18T17:57:59.922Z,19.20
2019-03-18T18:00:37.257Z,19.90
2019-03-18T18:03:06.543Z,20.50
2019-03-18T18:05:35.811Z,20.90
2019-03-18T18:08:05.095Z,21.30
2019-03-18T18:10:34.367Z,22.20
2019-03-18T18:13:03.663Z,22.70
2019-03-18T18:15:32.938Z,23.00
2019-03-18T18:18:02.547Z,23.20
2019-03-18T18:20:31.828Z,23.80
2019-03-18T18:23:13.167Z,24.10
2019-03-18T18:25:32.095Z,24.20
2019-03-18T18:28:01.401Z,24.80
2019-03-18T18:30:30.685Z,26.20
2019-03-18T18:32:59.967Z,25.20
2019-03-18T18:35:29.503Z,25.20
2019-03-18T18:37:59.118Z,26.10
2019-03-18T18:40:29.990Z,26.50
2019-03-18T18:42:59.319Z,27.00
2019-03-18T18:45:28.835Z,27.10
2019-03-18T18:47:58.106Z,27.80
2019-03-18T18:50:27.402Z,28.50
2019-03-18T18:52:56.671Z,29.30
2019-03-18T18:55:25.963Z,28.50
2019-03-18T18:57:55.319Z,26.50
2019-03-18T19:00:24.861Z,26.80
2019-03-18T19:02:54.472Z,27.10
2019-03-18T19:05:23.758Z,27.30
2019-03-18T19:07:53.374Z,26.50
2019-03-18T19:10:22.664Z,25.50
2019-03-18T19:12:52.288Z,26.50
2019-03-18T19:15:28.814Z,26.30
2019-03-18T19:17:58.101Z,26.50
2019-03-18T19:20:27.381Z,26.40
2019-03-18T19:22:56.666Z,27.30
2019-03-18T19:25:25.967Z,27.60
2019-03-18T19:27:55.243Z,28.00
2019-03-18T19:30:24.599Z,28.20
2019-03-18T19:32:53.880Z,28.80
2019-03-18T19:35:23.244Z,29.30
2019-03-18T19:37:52.515Z,29.60
2019-03-18T19:40:25.283Z,30.10
2019-03-18T19:42:54.584Z,29.80
2019-03-18T19:45:23.855Z,29.90
2019-03-18T19:47:53.617Z,30.70
2019-03-18T19:50:24.888Z,30.80
2019-03-18T19:52:54.139Z,31.20
2019-03-18T19:55:23.419Z,32.40
2019-03-18T19:57:52.713Z,32.70
2019-03-18T20:00:26.311Z,32.90
2019-03-18T20:02:55.671Z,32.80
2019-03-18T20:05:24.959Z,32.50
2019-03-18T20:07:54.247Z,32.60
2019-03-18T20:10:23.770Z,32.10
2019-03-18T20:12:53.320Z,32.60
2019-03-18T20:15:22.607Z,33.40
2019-03-18T20:17:51.899Z,33.70
2019-03-18T20:20:22.316Z,33.90
2019-03-18T20:22:51.852Z,34.00
2019-03-18T20:25:21.145Z,34.00
2019-03-18T20:27:50.436Z,34.40
2019-03-18T20:30:21.093Z,35.10
2019-03-18T20:32:50.547Z,34.80
2019-03-18T20:35:21.306Z,35.20
2019-03-18T20:37:52.071Z,35.10
2019-03-18T20:40:21.874Z,35.50
2019-03-18T20:42:51.489Z,35.40
2019-03-18T20:45:25.770Z,35.70
2019-03-18T20:47:55.056Z,36.10
2019-03-18T20:50:24.866Z,36.20
2019-03-18T20:52:54.159Z,36.40
2019-03-18T20:55:23.439Z,36.40
2019-03-18T20:57:53.024Z,37.10
2019-03-18T21:00:25.331Z,36.70
2019-03-18T21:02:54.640Z,37.90
2019-03-18T21:05:25.315Z,38.50
2019-03-18T21:07:55.247Z,39.40
2019-03-18T21:10:24.517Z,39.10
2019-03-18T21:12:53.804Z,39.30
2019-03-18T21:15:23.101Z,38.90
2019-03-18T21:17:52.367Z,39.60
2019-03-18T21:20:23.499Z,40.50
2019-03-18T21:22:52.779Z,41.20
2019-03-18T21:25:22.399Z,40.70
2019-03-18T21:27:51.682Z,41.00
2019-03-18T21:30:21.951Z,41.80
2019-03-18T21:32:51.327Z,42.30
2019-03-18T21:35:20.671Z,42.30
2019-03-18T21:37:49.938Z,42.30
2019-03-18T21:40:20.199Z,42.10
2019-03-18T21:42:49.556Z,41.80
2019-03-18T21:45:25.064Z,42.30
2019-03-18T21:47:54.334Z,42.20
2019-03-18T21:50:23.627Z,42.30
2019-03-18T21:52:52.908Z,42.40
2019-03-18T21:55:22.201Z,42.10
2019-03-18T21:57:51.539Z,42.30
2019-03-18T22:00:21.873Z,42.60
2019-03-18T22:02:53.884Z,43.10
2019-03-18T22:05:23.190Z,43.30
2019-03-18T22:07:52.814Z,43.40
2019-03-18T22:10:22.105Z,43.60
2019-03-18T22:12:51.459Z,43.40
2019-03-18T22:15:21.316Z,51.80
2019-03-18T22:17:50.590Z,52.20
2019-03-18T22:20:21.520Z,51.20
2019-03-18T22:22:51.370Z,49.30
2019-03-18T22:25:20.643Z,45.40
2019-03-18T22:27:49.942Z,42.10
2019-03-18T22:30:19.550Z,41.60
2019-03-18T22:32:48.836Z,41.30
2019-03-18T22:35:18.205Z,42.00
2019-03-18T22:37:47.578Z,41.00
2019-03-18T22:40:17.864Z,41.40
2019-03-18T22:42:47.119Z,42.90
2019-03-18T22:45:18.102Z,45.20
2019-03-18T22:47:47.460Z,45.50
2019-03-18T22:50:17.191Z,45.50
2019-03-18T22:52:46.485Z,46.30
2019-03-18T22:55:15.818Z,46.30
2019-03-18T22:57:45.108Z,47.30
2019-03-18T23:00:26.607Z,48.20
2019-03-18T23:02:56.599Z,48.00
2019-03-18T23:05:25.887Z,47.90
2019-03-18T23:07:55.157Z,47.90
2019-03-18T23:10:24.439Z,47.10
2019-03-18T23:12:53.716Z,47.30
2019-03-18T23:15:22.999Z,46.80
2019-03-18T23:17:52.295Z,46.70
2019-03-18T23:20:21.564Z,46.10
2019-03-18T23:22:50.866Z,45.70
2019-03-18T23:25:20.140Z,45.40
2019-03-18T23:27:49.667Z,45.40
2019-03-18T23:30:18.959Z,45.90
2019-03-18T23:32:49.290Z,45.80
2019-03-18T23:35:18.575Z,45.90
2019-03-18T23:37:47.876Z,47.50
2019-03-18T23:40:17.228Z,47.50
2019-03-18T23:42:46.511Z,47.80
2019-03-18T23:45:15.794Z,47.50
2019-03-18T23:47:45.078Z,47.90
2019-03-18T23:50:15.399Z,47.90
2019-03-18T23:52:44.690Z,47.50
2019-03-18T23:55:19.701Z,47.40
2019-03-18T23:57:45.267Z,47.30
